Kenosha Regional Airport
KENW : now visible

Airfield :











YOU CAN JOIN US ON...

 
LOGIN :

Register | Disclaimer

   EN    FR    IT 

 









Legend :    VFR   Marginal VFR   IFR   Intensive IFR   Very Intensive IFR
Visi :
Ceiling :
>= 8 km
>= 3000ft
5 to 8 km
1000 to 3000 ft
1500m to 5 km
500 to 1000 ft
800 to 1500m
200 to 500 ft
< 800m
< 200 ft
Symbols :   Thunderstorms  Fog  Heavy snow  Heavy precipitations  Wind > 20 kt






- Airport Elevation : 742 ft


KENW - Kenosha Regional

CURRENT METAR :
  • 091453Z 07004KT 10SM SCT050 29/22 A2990 RMK AO2 SLP119 T02940222 58003

EXPIRED METARs :
  • 091353Z 00000KT 10SM CLR 29/22 A2991 RMK AO2 SLP122 T02890222
  • 091253Z 27004KT 10SM FEW065 28/22 A2992 RMK AO2 LTG DSNT N SLP124 T02780222
  • 091153Z 30003KT 10SM CLR 26/21 A2991 RMK AO2 SLP122 T02560211 10256 20211 53007

TAF KENW
Valid from the 09 at 12:00 until the 10 at 12:00 UTC


091123Z 0912/1012 20006KT P6SM FEW250
FM091800 17010KT P6SM VCTS FEW040CB SCT200
FM092300 19006KT 6SM SHRA BR VCTS BKN060CB
FM100900 22004KT 6SM BR BKN035
KZAU FIR / North America



MET'MAP, your aeronautical weather chart ! - Copyright ORBIFLY December 2007 - Disclaimer

ORBIFLY MET'MAP TEAM :

Programming & Development : Alexandra Zaïnal
Concept & original design : Baudouin d'Aumeries
Assistance for programming : Marc-Olivier Méhu
Technical & hardware support : Manuel Goepfert

Contact : metmap@orbifly.com




SOURCES & CREDITS :

   NOAA       Earth
Advisory